createdAt,value
2023-05-05T00:01:08.575Z,13.45
2023-05-05T00:03:35.624Z,13.40
2023-05-05T00:06:02.929Z,13.36
2023-05-05T00:08:29.909Z,13.38
2023-05-05T00:10:56.537Z,13.38
2023-05-05T00:13:24.665Z,13.34
2023-05-05T00:15:53.154Z,13.25
2023-05-05T00:18:20.506Z,13.20
2023-05-05T00:20:47.733Z,13.08
2023-05-05T00:23:14.773Z,13.05
2023-05-05T00:25:41.334Z,12.98
2023-05-05T00:28:07.980Z,12.90
2023-05-05T00:30:35.968Z,12.88
2023-05-05T00:33:02.526Z,12.88
2023-05-05T00:35:30.559Z,12.86
2023-05-05T00:37:57.168Z,12.87
2023-05-05T00:40:23.911Z,12.67
2023-05-05T00:42:50.445Z,12.66
2023-05-05T00:45:18.506Z,12.60
2023-05-05T00:47:48.284Z,12.60
2023-05-05T00:50:22.041Z,12.63
2023-05-05T00:52:49.278Z,12.53
2023-05-05T00:55:16.278Z,12.43
2023-05-05T00:57:44.020Z,12.36
2023-05-05T01:00:11.514Z,12.36
2023-05-05T01:02:39.316Z,12.35
2023-05-05T01:05:08.185Z,12.33
2023-05-05T01:07:43.955Z,12.34
2023-05-05T01:10:20.643Z,12.33
2023-05-05T01:12:57.300Z,12.32
2023-05-05T01:15:31.967Z,12.34
2023-05-05T01:18:06.322Z,12.30
2023-05-05T01:20:40.987Z,12.34
2023-05-05T01:23:09.616Z,12.26
2023-05-05T01:26:09.651Z,12.23
2023-05-05T01:28:54.680Z,12.25
2023-05-05T01:31:46.998Z,12.27
2023-05-05T01:34:16.593Z,12.25
2023-05-05T01:36:49.483Z,12.23
2023-05-05T01:39:16.857Z,12.21
2023-05-05T01:41:46.969Z,12.13
2023-05-05T01:44:15.531Z,12.20
2023-05-05T01:46:43.431Z,12.15
2023-05-05T01:49:11.545Z,12.11
2023-05-05T01:51:39.524Z,12.12
2023-05-05T01:54:08.533Z,12.05
2023-05-05T01:56:38.592Z,12.00
2023-05-05T01:59:05.851Z,11.93
2023-05-05T02:01:35.393Z,11.90
2023-05-05T02:04:05.540Z,11.88
2023-05-05T02:06:33.703Z,11.93
2023-05-05T02:09:02.356Z,11.91
2023-05-05T02:11:29.787Z,11.85
2023-05-05T02:13:58.788Z,11.86
2023-05-05T02:16:26.039Z,11.88
2023-05-05T02:18:54.257Z,11.88
2023-05-05T02:21:22.224Z,11.93
2023-05-05T02:23:48.808Z,11.93
2023-05-05T02:26:16.813Z,11.92
2023-05-05T02:28:48.755Z,11.90
2023-05-05T02:31:17.795Z,11.98
2023-05-05T02:33:47.235Z,11.97
2023-05-05T02:36:18.886Z,11.81
2023-05-05T02:38:58.847Z,11.94
2023-05-05T02:41:29.956Z,11.91
2023-05-05T02:44:00.738Z,11.93
2023-05-05T02:46:29.291Z,11.91
2023-05-05T02:48:56.472Z,11.89
2023-05-05T02:51:22.951Z,11.87
2023-05-05T02:53:49.756Z,11.85
2023-05-05T02:56:26.754Z,11.88
2023-05-05T02:59:02.573Z,11.89
2023-05-05T03:01:40.036Z,11.89
2023-05-05T03:04:15.215Z,11.89
2023-05-05T03:06:49.804Z,11.92
2023-05-05T03:09:27.561Z,11.94
2023-05-05T03:12:01.199Z,11.96
2023-05-05T03:14:35.010Z,11.98
2023-05-05T03:17:04.277Z,12.00
2023-05-05T03:19:31.892Z,11.98
2023-05-05T03:22:03.365Z,12.00
2023-05-05T03:24:31.416Z,11.94
2023-05-05T03:27:05.583Z,11.95
2023-05-05T03:29:36.540Z,11.93
2023-05-05T03:32:06.315Z,11.87
2023-05-05T03:34:33.476Z,11.84
2023-05-05T03:37:03.076Z,11.86
2023-05-05T03:39:30.026Z,11.44
2023-05-05T03:41:57.289Z,11.75
2023-05-05T03:44:27.689Z,11.72
2023-05-05T03:46:54.275Z,11.70
2023-05-05T03:49:21.050Z,11.71
2023-05-05T03:51:48.524Z,11.78
2023-05-05T03:54:15.308Z,11.78
2023-05-05T03:56:41.819Z,11.71
2023-05-05T03:59:08.439Z,11.70
2023-05-05T04:01:36.388Z,11.71
2023-05-05T04:04:03.093Z,11.72
2023-05-05T04:06:29.703Z,11.68
2023-05-05T04:08:56.276Z,11.67
2023-05-05T04:11:22.815Z,11.65
2023-05-05T04:13:50.085Z,11.60
2023-05-05T04:16:17.483Z,11.58
2023-05-05T04:18:45.383Z,11.56
2023-05-05T04:21:12.039Z,11.56
2023-05-05T04:23:39.820Z,11.52
2023-05-05T04:26:06.954Z,11.53
2023-05-05T04:28:33.501Z,11.56
2023-05-05T04:31:00.050Z,11.55
2023-05-05T04:33:27.566Z,11.74
2023-05-05T04:35:55.622Z,11.88
2023-05-05T04:38:22.402Z,11.97
2023-05-05T04:40:49.041Z,12.09
2023-05-05T04:43:16.619Z,12.14
2023-05-05T04:45:52.122Z,12.23
2023-05-05T04:48:20.004Z,12.23
2023-05-05T04:50:46.915Z,12.24
2023-05-05T04:53:15.242Z,12.26
2023-05-05T04:55:41.826Z,12.30
2023-05-05T04:58:08.394Z,12.34
2023-05-05T05:00:35.870Z,12.40
2023-05-05T05:03:02.714Z,12.42
2023-05-05T05:05:29.293Z,12.48
2023-05-05T05:07:56.054Z,12.53
2023-05-05T05:10:24.571Z,12.57
2023-05-05T05:12:51.169Z,12.63
2023-05-05T05:15:17.732Z,12.69
2023-05-05T05:17:44.473Z,12.76
2023-05-05T05:20:12.582Z,12.81
2023-05-05T05:22:39.328Z,12.89
2023-05-05T05:25:10.558Z,12.94
2023-05-05T05:27:38.602Z,13.05
2023-05-05T05:30:06.402Z,13.17
2023-05-05T05:32:33.905Z,13.19
2023-05-05T05:35:01.081Z,13.34
2023-05-05T05:37:28.654Z,13.45
2023-05-05T05:39:55.653Z,13.52
2023-05-05T05:42:23.701Z,13.63
2023-05-05T05:44:51.949Z,13.67
2023-05-05T05:47:18.655Z,13.75
2023-05-05T05:49:45.685Z,13.80
2023-05-05T05:52:12.224Z,13.86
2023-05-05T05:54:39.585Z,13.92
2023-05-05T05:57:07.493Z,13.98
2023-05-05T05:59:34.041Z,14.01
2023-05-05T06:02:02.339Z,14.06
2023-05-05T06:04:29.458Z,14.16
2023-05-05T06:06:56.142Z,14.22
2023-05-05T06:09:22.972Z,14.24
2023-05-05T06:11:50.090Z,14.32
2023-05-05T06:14:18.029Z,14.40
2023-05-05T06:16:45.114Z,14.49
2023-05-05T06:19:17.604Z,14.59
2023-05-05T06:21:44.312Z,14.68
2023-05-05T06:24:11.608Z,14.78
2023-05-05T06:26:38.325Z,14.85
2023-05-05T06:29:04.806Z,14.88
2023-05-05T06:31:31.424Z,14.94
2023-05-05T06:33:57.928Z,15.01
2023-05-05T06:36:26.002Z,15.13
2023-05-05T06:38:52.593Z,15.19
2023-05-05T06:41:19.139Z,15.29
2023-05-05T06:43:45.632Z,15.41
2023-05-05T06:46:13.536Z,15.52
2023-05-05T06:48:40.081Z,15.60
2023-05-05T06:51:06.712Z,15.48
2023-05-05T06:53:34.657Z,15.88
2023-05-05T06:56:01.359Z,15.98
2023-05-05T06:58:28.102Z,16.13
2023-05-05T07:00:54.686Z,16.26
2023-05-05T07:03:21.358Z,16.37
2023-05-05T07:05:48.021Z,16.48
2023-05-05T07:08:14.528Z,16.62
2023-05-05T07:10:42.426Z,16.78
2023-05-05T07:13:09.029Z,16.90
2023-05-05T07:15:35.847Z,17.09
2023-05-05T07:18:02.435Z,17.20
2023-05-05T07:20:29.027Z,17.37
2023-05-05T07:22:55.929Z,17.53
2023-05-05T07:25:22.629Z,17.61
2023-05-05T07:27:50.539Z,17.71
2023-05-05T07:30:19.068Z,17.94
2023-05-05T07:32:46.154Z,18.06
2023-05-05T07:35:13.248Z,18.31
2023-05-05T07:37:40.070Z,18.52
2023-05-05T07:40:08.097Z,18.69
2023-05-05T07:42:34.754Z,18.75
2023-05-05T07:45:02.831Z,18.90
2023-05-05T07:47:29.688Z,19.05
2023-05-05T07:49:56.509Z,19.11
2023-05-05T07:52:33.178Z,19.25
2023-05-05T07:55:09.699Z,19.32
2023-05-05T07:57:36.249Z,19.48
2023-05-05T08:00:05.810Z,19.60
2023-05-05T08:02:38.918Z,19.70
2023-05-05T08:05:06.608Z,19.83
2023-05-05T08:07:33.467Z,19.91
2023-05-05T08:10:00.216Z,19.87
2023-05-05T08:12:26.728Z,19.94
2023-05-05T08:14:53.256Z,20.03
2023-05-05T08:17:21.128Z,19.94
2023-05-05T08:19:51.271Z,20.10
2023-05-05T08:22:17.748Z,20.17
2023-05-05T08:24:44.662Z,20.17
2023-05-05T08:27:11.234Z,20.26
2023-05-05T08:29:37.738Z,20.31
2023-05-05T08:32:04.496Z,20.45
2023-05-05T08:34:32.337Z,20.43
2023-05-05T08:36:58.854Z,20.52
2023-05-05T08:39:25.427Z,20.66
2023-05-05T08:41:51.967Z,20.81
2023-05-05T08:44:18.511Z,20.93
2023-05-05T08:46:45.820Z,21.05
2023-05-05T08:49:15.940Z,21.20
2023-05-05T08:51:45.437Z,21.29
2023-05-05T08:54:17.619Z,21.35
2023-05-05T08:56:46.957Z,21.44
2023-05-05T08:59:14.438Z,21.58
2023-05-05T09:01:41.734Z,21.66
2023-05-05T09:04:09.042Z,21.76
2023-05-05T09:06:35.694Z,21.77
2023-05-05T09:09:03.680Z,21.90
2023-05-05T09:11:31.032Z,21.85
2023-05-05T09:13:57.631Z,21.81
2023-05-05T09:16:24.270Z,21.79
2023-05-05T09:18:50.783Z,22.03
2023-05-05T09:21:21.319Z,21.99
2023-05-05T09:24:10.125Z,22.09
2023-05-05T09:26:38.047Z,22.09
2023-05-05T09:29:05.527Z,21.97
2023-05-05T09:31:34.038Z,22.05
2023-05-05T09:34:01.186Z,22.00
2023-05-05T09:36:51.947Z,22.11
2023-05-05T09:39:20.418Z,22.26
2023-05-05T09:41:47.042Z,22.37
2023-05-05T09:44:14.124Z,22.22
2023-05-05T09:46:50.131Z,22.30
2023-05-05T09:49:18.194Z,22.24
2023-05-05T09:51:45.156Z,22.44
2023-05-05T09:54:23.470Z,22.55
2023-05-05T09:56:50.481Z,22.64
2023-05-05T09:59:17.207Z,22.78
2023-05-05T10:01:44.119Z,22.90
2023-05-05T10:04:22.929Z,23.09
2023-05-05T10:06:49.555Z,23.24
2023-05-05T10:09:16.106Z,23.42
2023-05-05T10:11:46.077Z,23.47
2023-05-05T10:14:14.276Z,23.60
2023-05-05T10:16:46.211Z,23.77
2023-05-05T10:19:14.961Z,23.89
2023-05-05T10:21:45.819Z,23.92
2023-05-05T10:24:20.372Z,23.85
2023-05-05T10:26:49.716Z,23.62
2023-05-05T10:29:22.939Z,23.67
2023-05-05T10:31:53.805Z,23.36
2023-05-05T10:34:26.960Z,23.19
2023-05-05T10:36:53.648Z,23.20
2023-05-05T10:41:48.236Z,23.18
2023-05-05T10:44:15.115Z,23.20
2023-05-05T10:46:43.032Z,23.15
2023-05-05T10:49:17.766Z,23.14
2023-05-05T10:51:49.765Z,23.30
2023-05-05T10:54:22.990Z,23.39
2023-05-05T10:56:51.732Z,23.46
2023-05-05T10:59:39.352Z,23.51
2023-05-05T11:02:18.626Z,23.49
2023-05-05T11:05:06.861Z,23.54
2023-05-05T11:07:33.968Z,23.59
2023-05-05T11:10:02.022Z,23.58
2023-05-05T11:12:31.543Z,23.53
2023-05-05T11:15:33.838Z,23.43
2023-05-05T11:18:03.143Z,23.13
2023-05-05T11:21:03.589Z,22.75
2023-05-05T11:23:30.808Z,22.40
2023-05-05T11:25:57.994Z,22.39
2023-05-05T11:28:27.343Z,22.32
2023-05-05T11:31:16.203Z,22.34
2023-05-05T11:33:42.989Z,21.86
2023-05-05T11:36:11.015Z,21.67
2023-05-05T11:38:51.339Z,21.44
2023-05-05T11:41:33.104Z,21.24
2023-05-05T11:44:11.018Z,21.12
2023-05-05T11:46:39.079Z,21.10
2023-05-05T11:49:06.614Z,21.00
2023-05-05T11:51:33.530Z,20.94
2023-05-05T11:54:00.069Z,20.80
2023-05-05T11:56:26.689Z,20.53
2023-05-05T11:59:08.058Z,19.94
2023-05-05T12:01:39.767Z,19.63
2023-05-05T12:04:06.738Z,19.48
2023-05-05T12:06:33.522Z,19.37
2023-05-05T12:09:00.197Z,19.17
2023-05-05T12:11:26.817Z,19.12
2023-05-05T12:14:07.578Z,19.05
2023-05-05T12:16:35.562Z,18.79
2023-05-05T12:19:05.788Z,18.84
2023-05-05T12:21:32.661Z,18.94
2023-05-05T12:23:59.330Z,18.95
2023-05-05T12:26:27.030Z,18.85
2023-05-05T12:28:53.835Z,18.99
2023-05-05T12:31:20.476Z,19.10
2023-05-05T12:33:48.653Z,19.23
2023-05-05T12:36:15.616Z,19.32
2023-05-05T12:38:42.574Z,19.53
2023-05-05T12:41:09.256Z,19.61
2023-05-05T12:43:35.783Z,19.71
2023-05-05T12:46:05.753Z,19.76
2023-05-05T12:48:32.667Z,19.95
2023-05-05T12:51:17.458Z,19.92
2023-05-05T12:53:44.746Z,19.90
2023-05-05T12:56:29.348Z,20.04
2023-05-05T12:58:56.152Z,20.19
2023-05-05T13:01:22.723Z,20.25
2023-05-05T13:04:06.970Z,20.29
2023-05-05T13:06:35.195Z,20.29
2023-05-05T13:09:01.761Z,20.33
2023-05-05T13:11:28.406Z,20.40
2023-05-05T13:13:54.885Z,20.41
2023-05-05T13:16:21.613Z,20.45
2023-05-05T13:18:49.773Z,20.55
2023-05-05T13:21:16.507Z,20.68
2023-05-05T13:23:44.727Z,20.80
2023-05-05T13:26:11.539Z,20.96
2023-05-05T13:28:38.154Z,21.05
2023-05-05T13:31:04.818Z,21.19
2023-05-05T13:33:33.712Z,21.22
2023-05-05T13:36:00.289Z,21.24
2023-05-05T13:38:26.965Z,21.30
2023-05-05T13:40:54.938Z,21.20
2023-05-05T13:43:21.482Z,21.25
2023-05-05T13:45:48.127Z,21.24
2023-05-05T13:48:14.662Z,21.14
2023-05-05T13:50:41.459Z,21.11
2023-05-05T13:53:07.967Z,21.07
2023-05-05T13:55:34.561Z,21.09
2023-05-05T13:58:02.578Z,21.07
2023-05-05T14:00:29.190Z,21.13
2023-05-05T14:02:55.767Z,21.07
2023-05-05T14:05:22.506Z,20.97
2023-05-05T14:07:49.182Z,20.82
2023-05-05T14:10:15.786Z,20.84
2023-05-05T14:12:42.390Z,20.76
2023-05-05T14:15:11.037Z,20.79
2023-05-05T14:17:37.781Z,20.81
2023-05-05T14:20:05.544Z,20.73
2023-05-05T14:22:32.098Z,20.66
2023-05-05T14:24:58.695Z,20.58
2023-05-05T14:27:25.256Z,20.58
2023-05-05T14:29:51.780Z,20.57
2023-05-05T14:32:19.624Z,20.66
2023-05-05T14:34:47.203Z,20.62
2023-05-05T14:37:15.526Z,20.63
2023-05-05T14:39:42.236Z,20.71
2023-05-05T14:42:08.808Z,20.74
2023-05-05T14:44:35.430Z,20.82
2023-05-05T14:47:02.039Z,20.76
2023-05-05T14:49:29.980Z,20.85
2023-05-05T14:51:56.875Z,20.96
2023-05-05T14:54:28.466Z,21.02
2023-05-05T14:56:55.668Z,21.03
2023-05-05T14:59:22.272Z,21.07
2023-05-05T15:01:48.933Z,21.15
2023-05-05T15:04:16.159Z,21.27
2023-05-05T15:06:44.135Z,21.37
2023-05-05T15:09:10.646Z,21.48
2023-05-05T15:11:37.212Z,21.55
2023-05-05T15:14:03.706Z,21.56
2023-05-05T15:16:30.821Z,21.61
2023-05-05T15:18:58.180Z,21.60
2023-05-05T15:21:24.745Z,21.57
2023-05-05T15:23:52.591Z,21.57
2023-05-05T15:26:19.314Z,21.47
2023-05-05T15:28:46.548Z,21.48
2023-05-05T15:31:14.440Z,21.47
2023-05-05T15:33:40.999Z,21.36
2023-05-05T15:36:08.460Z,21.30
2023-05-05T15:38:40.877Z,21.16
2023-05-05T15:41:08.851Z,21.05
2023-05-05T15:43:35.580Z,20.99
2023-05-05T15:46:02.113Z,20.95
2023-05-05T15:48:28.842Z,20.89
2023-05-05T15:50:55.440Z,20.89
2023-05-05T15:53:22.049Z,20.90
2023-05-05T15:55:48.590Z,20.93
2023-05-05T15:58:16.411Z,20.86
2023-05-05T16:00:43.121Z,20.64
2023-05-05T16:03:09.752Z,20.55
2023-05-05T16:05:36.341Z,20.42
2023-05-05T16:08:02.943Z,20.12
2023-05-05T16:10:29.557Z,19.92
2023-05-05T16:12:56.201Z,19.40
2023-05-05T16:15:24.427Z,19.14
2023-05-05T16:17:51.030Z,18.78
2023-05-05T16:20:17.632Z,18.26
2023-05-05T16:22:44.716Z,18.13
2023-05-05T16:25:11.381Z,17.99
2023-05-05T16:27:38.012Z,17.81
2023-05-05T16:30:05.418Z,17.62
2023-05-05T16:32:33.390Z,17.49
2023-05-05T16:34:59.978Z,17.36
2023-05-05T16:37:26.540Z,17.17
2023-05-05T16:39:53.079Z,17.02
2023-05-05T16:42:19.652Z,16.92
2023-05-05T16:44:46.255Z,17.23
2023-05-05T16:47:12.733Z,17.89
2023-05-05T16:49:40.663Z,18.44
2023-05-05T16:52:07.177Z,18.57
2023-05-05T16:54:33.771Z,18.64
2023-05-05T16:57:00.286Z,18.56
2023-05-05T16:59:26.905Z,18.44
2023-05-05T17:01:53.453Z,18.33
2023-05-05T17:04:20.091Z,18.25
2023-05-05T17:06:47.917Z,18.08
2023-05-05T17:09:14.458Z,18.02
2023-05-05T17:11:40.934Z,17.93
2023-05-05T17:14:07.547Z,17.85
2023-05-05T17:16:34.221Z,17.74
2023-05-05T17:19:00.826Z,17.61
2023-05-05T17:21:27.328Z,17.56
2023-05-05T17:23:55.224Z,17.49
2023-05-05T17:26:21.708Z,17.34
2023-05-05T17:28:48.303Z,17.30
2023-05-05T17:31:14.834Z,17.15
2023-05-05T17:33:41.428Z,17.09
2023-05-05T17:36:08.751Z,17.03
2023-05-05T17:38:35.274Z,16.97
2023-05-05T17:41:03.123Z,16.93
2023-05-05T17:43:29.676Z,16.90
2023-05-05T17:45:56.150Z,17.05
2023-05-05T17:48:22.838Z,17.24
2023-05-05T17:50:49.384Z,17.32
2023-05-05T17:53:15.902Z,17.34
2023-05-05T17:55:44.556Z,17.31
2023-05-05T17:58:12.545Z,17.23
2023-05-05T18:00:39.079Z,17.18
2023-05-05T18:03:05.710Z,17.08
2023-05-05T18:05:32.396Z,17.08
2023-05-05T18:07:58.993Z,17.01
2023-05-05T18:10:25.506Z,16.97
2023-05-05T18:12:52.262Z,16.77
2023-05-05T18:15:20.160Z,16.85
2023-05-05T18:17:46.793Z,16.79
2023-05-05T18:20:13.678Z,16.75
2023-05-05T18:22:40.230Z,16.70
2023-05-05T18:25:08.341Z,16.59
2023-05-05T18:27:34.996Z,16.57
2023-05-05T18:30:01.726Z,16.45
2023-05-05T18:32:29.635Z,16.44
2023-05-05T18:34:56.144Z,16.38
2023-05-05T18:37:22.748Z,16.32
2023-05-05T18:39:49.260Z,16.14
2023-05-05T18:42:15.852Z,16.23
2023-05-05T18:44:42.392Z,16.14
2023-05-05T18:47:09.122Z,16.10
2023-05-05T18:49:37.152Z,16.02
2023-05-05T18:52:03.976Z,15.94
2023-05-05T18:54:30.483Z,15.88
2023-05-05T18:56:57.085Z,15.85
2023-05-05T18:59:23.950Z,15.81
2023-05-05T19:01:51.148Z,15.78
2023-05-05T19:04:30.220Z,15.70
2023-05-05T19:06:59.661Z,15.51
2023-05-05T19:09:26.376Z,15.39
2023-05-05T19:11:53.014Z,15.45
2023-05-05T19:14:19.475Z,15.44
2023-05-05T19:16:46.155Z,15.48
2023-05-05T19:19:12.803Z,15.46
2023-05-05T19:21:39.489Z,15.47
2023-05-05T19:24:08.489Z,15.45
2023-05-05T19:26:35.126Z,15.53
2023-05-05T19:29:01.622Z,15.44
2023-05-05T19:31:28.286Z,15.38
2023-05-05T19:33:59.495Z,15.31
2023-05-05T19:36:26.092Z,15.16
2023-05-05T19:38:52.665Z,15.36
2023-05-05T19:41:20.597Z,15.33
2023-05-05T19:43:47.074Z,15.31
2023-05-05T19:46:14.412Z,15.19
2023-05-05T19:48:40.923Z,15.23
2023-05-05T19:51:07.538Z,15.22
2023-05-05T19:53:34.082Z,15.16
2023-05-05T19:56:00.868Z,15.13
2023-05-05T19:58:28.702Z,15.03
2023-05-05T20:00:55.222Z,15.07
2023-05-05T20:03:21.853Z,15.05
2023-05-05T20:05:48.539Z,15.02
2023-05-05T20:08:15.430Z,15.03
2023-05-05T20:10:41.983Z,15.05
2023-05-05T20:13:08.603Z,15.00
2023-05-05T20:15:36.668Z,14.96
2023-05-05T20:18:03.391Z,14.91
2023-05-05T20:20:29.954Z,14.88
2023-05-05T20:22:56.451Z,14.83
2023-05-05T20:25:23.088Z,14.78
2023-05-05T20:27:49.645Z,14.72
2023-05-05T20:30:16.235Z,14.65
2023-05-05T20:32:44.128Z,14.57
2023-05-05T20:35:10.716Z,14.46
2023-05-05T20:37:37.217Z,14.35
2023-05-05T20:40:04.190Z,14.26
2023-05-05T20:42:30.680Z,14.18
2023-05-05T20:44:57.340Z,14.11
2023-05-05T20:47:23.868Z,14.05
2023-05-05T20:49:51.808Z,13.98
2023-05-05T20:52:18.333Z,13.92
2023-05-05T20:54:44.953Z,13.85
2023-05-05T20:57:11.491Z,13.73
2023-05-05T20:59:38.212Z,13.65
2023-05-05T21:02:04.814Z,13.57
2023-05-05T21:04:31.488Z,13.51
2023-05-05T21:06:59.403Z,13.45
2023-05-05T21:09:26.067Z,13.43
2023-05-05T21:11:52.585Z,13.39
2023-05-05T21:14:19.141Z,13.34
2023-05-05T21:16:45.736Z,13.31
2023-05-05T21:19:12.298Z,13.29
2023-05-05T21:21:38.827Z,13.28
2023-05-05T21:24:08.137Z,13.28
2023-05-05T21:26:34.779Z,13.30
2023-05-05T21:29:01.351Z,13.30
2023-05-05T21:31:27.893Z,13.28
2023-05-05T21:33:54.440Z,13.27
2023-05-05T21:36:20.927Z,13.20
2023-05-05T21:38:47.486Z,13.12
2023-05-05T21:41:15.330Z,13.09
2023-05-05T21:43:42.027Z,13.08
2023-05-05T21:46:08.601Z,13.05
2023-05-05T21:48:35.291Z,13.03
2023-05-05T21:51:01.786Z,13.03
2023-05-05T21:53:28.368Z,13.06
2023-05-05T21:55:54.871Z,13.07
2023-05-05T21:58:23.397Z,13.06
2023-05-05T22:00:50.168Z,13.05
2023-05-05T22:03:16.989Z,13.05
2023-05-05T22:05:43.539Z,13.07
2023-05-05T22:08:10.111Z,13.08
2023-05-05T22:10:36.712Z,13.09
2023-05-05T22:13:03.330Z,13.12
2023-05-05T22:15:38.908Z,13.12
2023-05-05T22:18:09.712Z,13.12
2023-05-05T22:20:36.967Z,13.14
2023-05-05T22:23:03.488Z,13.12
2023-05-05T22:25:30.149Z,13.14
2023-05-05T22:27:56.688Z,13.10
2023-05-05T22:30:23.153Z,13.14
2023-05-05T22:32:51.105Z,13.15
2023-05-05T22:35:17.650Z,13.13
2023-05-05T22:37:44.186Z,13.12
2023-05-05T22:40:11.525Z,13.13
2023-05-05T22:42:38.240Z,13.11
2023-05-05T22:45:05.332Z,13.09
2023-05-05T22:47:31.974Z,13.10
2023-05-05T22:49:59.875Z,13.11
2023-05-05T22:52:26.385Z,13.12
2023-05-05T22:54:52.880Z,13.11
2023-05-05T22:57:19.472Z,13.10
2023-05-05T22:59:46.024Z,13.09
2023-05-05T23:02:12.648Z,13.10
2023-05-05T23:04:39.478Z,13.10
2023-05-05T23:07:07.452Z,13.11
2023-05-05T23:09:33.950Z,13.08
2023-05-05T23:12:00.454Z,13.06
2023-05-05T23:14:27.097Z,13.06
2023-05-05T23:16:53.721Z,13.04
2023-05-05T23:19:20.330Z,13.01
2023-05-05T23:21:53.398Z,13.03
2023-05-05T23:24:21.816Z,13.00
2023-05-05T23:26:48.341Z,12.97
2023-05-05T23:29:14.889Z,12.96
2023-05-05T23:31:41.600Z,12.90
2023-05-05T23:34:08.473Z,12.90
2023-05-05T23:36:34.955Z,12.88
2023-05-05T23:39:01.483Z,12.84
2023-05-05T23:41:29.334Z,12.81
2023-05-05T23:43:56.432Z,12.74
2023-05-05T23:46:23.177Z,12.78
2023-05-05T23:48:50.195Z,12.76
2023-05-05T23:51:16.840Z,12.70
2023-05-05T23:53:43.481Z,12.69
2023-05-05T23:56:09.996Z,12.69
2023-05-05T23:58:37.941Z,12.70
